Corey, Louisiana
Current Conditions -  °F | °C
As of 6:53 PM on Friday 19 Dec 2014 (Local Time) from KMLU Reporting Station
Overcast Overcast  
Wind Chill: 42°   Ceiling: 1000
Heat Index: 47°   Visibility: 9mi
Dew Point: 45°   Wind: 10mph
Humidity: 93%   Direction: 20°NNE
Pressure: 30.18"   Gusts: NA
Location:  32.5324°N, 92.1046°W
Report Text: KMLU 200053Z 02009KT 9SM OVC010 08/07 A3018 RMK AO2 CIG 006V012 SLP220 T00830072
Loading
Personal Weather Stations






























Interactive Weather Map New forecast layout! Learn more

10-Day Weather Forecast

Advertisements
Track Severe Weather on mobile